Terminal Aerodrome Forecast
Issued by NWS

Current Version | Previous Version | Text Only | Print | Product List | Glossary On
Versions: 1 2 3 4 5 6 7 8 9 10 11 12 13 14 15 16 17
000
FTUS46 KMFR 160500 RRA
TAFOTH
TAF
KOTH 160545Z 1606/1706 02005KT P6SM SCT035 BKN080
     FM160900 15005KT P6SM VCSH OVC025
     FM161800 23007KT P6SM SCT025 BKN035
     FM162100 27012G18KT P6SM VCSH SCT025 OVC035
     FM170400 14005KT 5SM -DZ BR OVC020=

USA.gov is the U.S. government's official web portal to all federal, state and local government web resources and services.